sensor_id;sensor_type;location;lat;lon;timestamp;pressure;altitude;pressure_sealevel;temperature;humidity
58373;BME280;44177;43.356;27.672;2023-11-21T00:00:13;97907.03;;;4.87;95.50
58373;BME280;44177;43.356;27.672;2023-11-21T00:02:39;97913.25;;;4.97;95.56
58373;BME280;44177;43.356;27.672;2023-11-21T00:05:07;97875.34;;;4.70;95.33
58373;BME280;44177;43.356;27.672;2023-11-21T00:07:33;97923.28;;;5.05;95.41
58373;BME280;44177;43.356;27.672;2023-11-21T00:09:59;97883.50;;;4.88;95.04
58373;BME280;44177;43.356;27.672;2023-11-21T00:12:24;97933.94;;;5.19;94.76
58373;BME280;44177;43.356;27.672;2023-11-21T00:14:50;97939.84;;;5.21;94.30
58373;BME280;44177;43.356;27.672;2023-11-21T00:17:15;97921.38;;;5.14;93.89
58373;BME280;44177;43.356;27.672;2023-11-21T00:19:41;97941.41;;;5.31;93.75
58373;BME280;44177;43.356;27.672;2023-11-21T00:22:08;97927.09;;;5.21;93.95
58373;BME280;44177;43.356;27.672;2023-11-21T00:24:34;97922.00;;;5.20;93.48
58373;BME280;44177;43.356;27.672;2023-11-21T00:27:00;97934.13;;;5.31;93.29
58373;BME280;44177;43.356;27.672;2023-11-21T00:29:26;97923.44;;;5.26;93.25
58373;BME280;44177;43.356;27.672;2023-11-21T00:31:51;97933.78;;;5.33;93.03
58373;BME280;44177;43.356;27.672;2023-11-21T00:34:17;97921.38;;;5.32;92.79
58373;BME280;44177;43.356;27.672;2023-11-21T00:36:42;97924.56;;;5.34;92.53
58373;BME280;44177;43.356;27.672;2023-11-21T00:39:08;97915.81;;;5.28;92.10
58373;BME280;44177;43.356;27.672;2023-11-21T00:41:34;97913.09;;;5.28;91.97
58373;BME280;44177;43.356;27.672;2023-11-21T00:44:00;97917.88;;;5.31;91.66
58373;BME280;44177;43.356;27.672;2023-11-21T00:46:26;97927.59;;;5.32;91.52
58373;BME280;44177;43.356;27.672;2023-11-21T00:48:54;97916.28;;;5.21;91.46
58373;BME280;44177;43.356;27.672;2023-11-21T00:51:20;97935.56;;;5.29;91.46
58373;BME280;44177;43.356;27.672;2023-11-21T00:53:47;97914.19;;;5.10;91.68
58373;BME280;44177;43.356;27.672;2023-11-21T00:56:13;97925.38;;;5.17;91.90
58373;BME280;44177;43.356;27.672;2023-11-21T00:58:39;97926.47;;;5.16;91.73
58373;BME280;44177;43.356;27.672;2023-11-21T01:01:07;97913.88;;;5.02;92.15
58373;BME280;44177;43.356;27.672;2023-11-21T01:03:33;97928.50;;;5.01;92.01
58373;BME280;44177;43.356;27.672;2023-11-21T01:05:58;97923.44;;;5.09;92.14
58373;BME280;44177;43.356;27.672;2023-11-21T01:08:24;97930.59;;;5.13;91.89
58373;BME280;44177;43.356;27.672;2023-11-21T01:10:50;97928.22;;;5.03;92.42
58373;BME280;44177;43.356;27.672;2023-11-21T01:13:15;97911.00;;;4.99;92.48
58373;BME280;44177;43.356;27.672;2023-11-21T01:15:42;97919.94;;;4.99;91.83
58373;BME280;44177;43.356;27.672;2023-11-21T01:18:07;97919.94;;;4.99;91.66
58373;BME280;44177;43.356;27.672;2023-11-21T01:20:34;97916.13;;;5.09;91.41
58373;BME280;44177;43.356;27.672;2023-11-21T01:22:59;97919.16;;;5.16;91.05
58373;BME280;44177;43.356;27.672;2023-11-21T01:25:25;97916.78;;;5.15;91.20
58373;BME280;44177;43.356;27.672;2023-11-21T01:27:51;97927.09;;;5.13;91.38
58373;BME280;44177;43.356;27.672;2023-11-21T01:30:17;97913.25;;;5.05;91.36
58373;BME280;44177;43.356;27.672;2023-11-21T01:32:43;97921.84;;;5.08;91.31
58373;BME280;44177;43.356;27.672;2023-11-21T01:35:09;97922.16;;;5.06;90.84
58373;BME280;44177;43.356;27.672;2023-11-21T01:37:36;97906.38;;;4.82;90.04
58373;BME280;44177;43.356;27.672;2023-11-21T01:40:02;97921.66;;;4.86;89.88
58373;BME280;44177;43.356;27.672;2023-11-21T01:42:31;97914.00;;;4.80;90.30
58373;BME280;44177;43.356;27.672;2023-11-21T01:44:56;97920.22;;;4.89;91.00
58373;BME280;44177;43.356;27.672;2023-11-21T01:47:22;97906.56;;;4.94;91.00
58373;BME280;44177;43.356;27.672;2023-11-21T01:49:47;97882.19;;;4.68;90.72
58373;BME280;44177;43.356;27.672;2023-11-21T01:52:13;97899.72;;;4.79;91.26
58373;BME280;44177;43.356;27.672;2023-11-21T01:54:40;97911.94;;;4.77;91.87
58373;BME280;44177;43.356;27.672;2023-11-21T01:57:06;97908.75;;;4.74;92.30
58373;BME280;44177;43.356;27.672;2023-11-21T01:59:36;97900.16;;;4.64;92.38
58373;BME280;44177;43.356;27.672;2023-11-21T02:02:05;97905.41;;;4.78;92.13
58373;BME280;44177;43.356;27.672;2023-11-21T02:04:35;97907.81;;;4.88;91.78
58373;BME280;44177;43.356;27.672;2023-11-21T02:07:04;97903.34;;;4.74;91.88
58373;BME280;44177;43.356;27.672;2023-11-21T02:09:33;97894.09;;;4.67;92.30
58373;BME280;44177;43.356;27.672;2023-11-21T02:12:00;97903.03;;;4.67;92.12
58373;BME280;44177;43.356;27.672;2023-11-21T02:14:26;97858.81;;;4.46;92.05
58373;BME280;44177;43.356;27.672;2023-11-21T02:16:53;97906.19;;;4.61;92.27
58373;BME280;44177;43.356;27.672;2023-11-21T02:19:20;97902.69;;;4.60;92.41
58373;BME280;44177;43.356;27.672;2023-11-21T02:21:49;97850.31;;;4.21;92.65
58373;BME280;44177;43.356;27.672;2023-11-21T02:24:19;97901.38;;;4.49;93.33
58373;BME280;44177;43.356;27.672;2023-11-21T02:26:44;97896.13;;;4.43;93.15
58373;BME280;44177;43.356;27.672;2023-11-21T02:29:11;97909.31;;;4.54;93.14
58373;BME280;44177;43.356;27.672;2023-11-21T02:31:38;97913.28;;;4.48;93.03
58373;BME280;44177;43.356;27.672;2023-11-21T02:34:16;97909.63;;;4.43;93.43
58373;BME280;44177;43.356;27.672;2023-11-21T02:36:43;97904.50;;;4.33;93.93
58373;BME280;44177;43.356;27.672;2023-11-21T02:39:09;97903.50;;;4.20;94.88
58373;BME280;44177;43.356;27.672;2023-11-21T02:41:38;97902.56;;;4.25;95.32
58373;BME280;44177;43.356;27.672;2023-11-21T02:44:08;97912.75;;;4.28;95.35
58373;BME280;44177;43.356;27.672;2023-11-21T02:46:34;97907.97;;;4.25;95.06
58373;BME280;44177;43.356;27.672;2023-11-21T02:49:03;97908.94;;;4.29;94.44
58373;BME280;44177;43.356;27.672;2023-11-21T02:51:30;97897.44;;;4.15;95.01
58373;BME280;44177;43.356;27.672;2023-11-21T02:53:56;97902.06;;;4.14;95.25
58373;BME280;44177;43.356;27.672;2023-11-21T02:56:26;97861.94;;;3.90;95.36
58373;BME280;44177;43.356;27.672;2023-11-21T02:58:52;97906.19;;;4.20;95.24
58373;BME280;44177;43.356;27.672;2023-11-21T03:01:18;97902.56;;;4.25;95.08
58373;BME280;44177;43.356;27.672;2023-11-21T03:03:44;97908.28;;;4.23;95.30
58373;BME280;44177;43.356;27.672;2023-11-21T03:06:09;97929.31;;;4.35;95.03
58373;BME280;44177;43.356;27.672;2023-11-21T03:08:35;97918.78;;;4.25;95.32
58373;BME280;44177;43.356;27.672;2023-11-21T03:11:01;97921.31;;;4.30;95.00
58373;BME280;44177;43.356;27.672;2023-11-21T03:13:28;97890.13;;;4.06;94.76
58373;BME280;44177;43.356;27.672;2023-11-21T03:15:54;97933.72;;;4.31;95.15
58373;BME280;44177;43.356;27.672;2023-11-21T03:18:19;97936.06;;;4.24;95.14
58373;BME280;44177;43.356;27.672;2023-11-21T03:20:47;97928.44;;;4.17;94.98
58373;BME280;44177;43.356;27.672;2023-11-21T03:23:13;97940.03;;;4.18;95.20
58373;BME280;44177;43.356;27.672;2023-11-21T03:25:38;97914.03;;;3.99;95.06
58373;BME280;44177;43.356;27.672;2023-11-21T03:28:04;97927.28;;;4.09;95.64
58373;BME280;44177;43.356;27.672;2023-11-21T03:30:29;97938.44;;;4.17;95.64
58373;BME280;44177;43.356;27.672;2023-11-21T03:32:55;97927.41;;;4.04;95.70
58373;BME280;44177;43.356;27.672;2023-11-21T03:35:21;97933.00;;;4.08;95.39
58373;BME280;44177;43.356;27.672;2023-11-21T03:37:47;97919.44;;;3.99;95.37
58373;BME280;44177;43.356;27.672;2023-11-21T03:40:12;97935.63;;;3.99;96.24
58373;BME280;44177;43.356;27.672;2023-11-21T03:42:38;97931.53;;;4.02;96.40
58373;BME280;44177;43.356;27.672;2023-11-21T03:45:05;97918.03;;;4.02;96.29
58373;BME280;44177;43.356;27.672;2023-11-21T03:47:31;97921.53;;;4.02;96.11
58373;BME280;44177;43.356;27.672;2023-11-21T03:49:56;97925.81;;;4.03;95.98
58373;BME280;44177;43.356;27.672;2023-11-21T03:52:22;97941.88;;;4.08;95.99
58373;BME280;44177;43.356;27.672;2023-11-21T03:54:47;97932.63;;;4.01;96.20
58373;BME280;44177;43.356;27.672;2023-11-21T03:57:13;97927.25;;;4.01;96.06
58373;BME280;44177;43.356;27.672;2023-11-21T03:59:42;97937.47;;;4.13;95.81
58373;BME280;44177;43.356;27.672;2023-11-21T04:02:08;97941.75;;;4.14;95.53
58373;BME280;44177;43.356;27.672;2023-11-21T04:04:34;97939.66;;;4.10;95.59
58373;BME280;44177;43.356;27.672;2023-11-21T04:07:00;97928.53;;;4.03;95.48
58373;BME280;44177;43.356;27.672;2023-11-21T04:09:26;97917.38;;;3.96;95.90
58373;BME280;44177;43.356;27.672;2023-11-21T04:11:52;97909.38;;;3.91;95.85
58373;BME280;44177;43.356;27.672;2023-11-21T04:14:18;97918.78;;;3.93;95.95
58373;BME280;44177;43.356;27.672;2023-11-21T04:16:43;97934.34;;;3.97;96.03
58373;BME280;44177;43.356;27.672;2023-11-21T04:19:09;97911.13;;;3.87;96.16
58373;BME280;44177;43.356;27.672;2023-11-21T04:21:36;97933.56;;;3.96;96.29
58373;BME280;44177;43.356;27.672;2023-11-21T04:24:02;97906.91;;;3.72;96.46
58373;BME280;44177;43.356;27.672;2023-11-21T04:26:27;97945.16;;;3.97;96.33
58373;BME280;44177;43.356;27.672;2023-11-21T04:28:53;97929.00;;;4.05;96.15
58373;BME280;44177;43.356;27.672;2023-11-21T04:31:18;97818.63;;;3.32;95.71
58373;BME280;44177;43.356;27.672;2023-11-21T04:33:44;97912.19;;;4.08;95.28
58373;BME280;44177;43.356;27.672;2023-11-21T04:36:10;97919.53;;;4.17;94.69
58373;BME280;44177;43.356;27.672;2023-11-21T04:38:36;97924.16;;;4.25;94.41
58373;BME280;44177;43.356;27.672;2023-11-21T04:41:01;97884.97;;;3.96;94.03
58373;BME280;44177;43.356;27.672;2023-11-21T04:43:27;97897.72;;;4.04;93.75
58373;BME280;44177;43.356;27.672;2023-11-21T04:45:54;97937.53;;;4.30;93.94
58373;BME280;44177;43.356;27.672;2023-11-21T04:48:20;97928.97;;;4.28;93.83
58373;BME280;44177;43.356;27.672;2023-11-21T04:50:45;97897.09;;;4.07;93.54
58373;BME280;44177;43.356;27.672;2023-11-21T04:53:11;97937.41;;;4.35;93.56
58373;BME280;44177;43.356;27.672;2023-11-21T04:55:40;97922.31;;;4.34;92.98
58373;BME280;44177;43.356;27.672;2023-11-21T04:58:05;97938.25;;;4.45;92.41
58373;BME280;44177;43.356;27.672;2023-11-21T05:00:31;97929.50;;;4.48;91.77
58373;BME280;44177;43.356;27.672;2023-11-21T05:02:56;97932.84;;;4.53;91.32
58373;BME280;44177;43.356;27.672;2023-11-21T05:05:22;97897.84;;;4.39;91.42
58373;BME280;44177;43.356;27.672;2023-11-21T05:07:47;97945.28;;;4.63;91.34
58373;BME280;44177;43.356;27.672;2023-11-21T05:10:14;97944.66;;;4.66;91.01
58373;BME280;44177;43.356;27.672;2023-11-21T05:12:41;97945.78;;;4.65;90.77
58373;BME280;44177;43.356;27.672;2023-11-21T05:15:07;97929.72;;;4.60;90.63
58373;BME280;44177;43.356;27.672;2023-11-21T05:17:37;97945.16;;;4.68;90.35
58373;BME280;44177;43.356;27.672;2023-11-21T05:20:05;97947.22;;;4.71;90.17
58373;BME280;44177;43.356;27.672;2023-11-21T05:22:34;97942.28;;;4.73;90.17
58373;BME280;44177;43.356;27.672;2023-11-21T05:24:59;97947.53;;;4.79;89.77
58373;BME280;44177;43.356;27.672;2023-11-21T05:27:25;97945.00;;;4.73;89.40
58373;BME280;44177;43.356;27.672;2023-11-21T05:29:50;97932.63;;;4.81;88.89
58373;BME280;44177;43.356;27.672;2023-11-21T05:32:16;97895.22;;;4.66;88.07
58373;BME280;44177;43.356;27.672;2023-11-21T05:34:42;97939.31;;;5.01;87.64
58373;BME280;44177;43.356;27.672;2023-11-21T05:37:08;97947.00;;;5.17;87.11
58373;BME280;44177;43.356;27.672;2023-11-21T05:39:33;97921.53;;;5.18;86.21
58373;BME280;44177;43.356;27.672;2023-11-21T05:41:59;97943.56;;;6.25;82.45
58373;BME280;44177;43.356;27.672;2023-11-21T05:44:25;97954.94;;;7.72;75.92
58373;BME280;44177;43.356;27.672;2023-11-21T05:46:51;97947.47;;;8.85;69.19
58373;BME280;44177;43.356;27.672;2023-11-21T05:49:16;97947.56;;;9.55;65.17
58373;BME280;44177;43.356;27.672;2023-11-21T05:51:42;97954.59;;;9.84;63.24
58373;BME280;44177;43.356;27.672;2023-11-21T05:54:07;97958.22;;;10.33;61.40
58373;BME280;44177;43.356;27.672;2023-11-21T05:56:33;97967.75;;;10.71;59.63
58373;BME280;44177;43.356;27.672;2023-11-21T05:58:59;97952.03;;;11.35;56.81
58373;BME280;44177;43.356;27.672;2023-11-21T06:01:25;97949.75;;;12.62;52.79
58373;BME280;44177;43.356;27.672;2023-11-21T06:03:54;97945.53;;;14.17;48.87
58373;BME280;44177;43.356;27.672;2023-11-21T06:06:21;97956.69;;;15.43;45.40
58373;BME280;44177;43.356;27.672;2023-11-21T06:08:48;97949.97;;;16.51;42.37
58373;BME280;44177;43.356;27.672;2023-11-21T06:11:14;97959.78;;;17.31;40.31
58373;BME280;44177;43.356;27.672;2023-11-21T06:13:39;97927.69;;;17.81;38.60
58373;BME280;44177;43.356;27.672;2023-11-21T06:16:05;97961.19;;;18.57;37.16
58373;BME280;44177;43.356;27.672;2023-11-21T06:18:31;97957.06;;;18.80;36.28
58373;BME280;44177;43.356;27.672;2023-11-21T06:20:56;97962.28;;;19.16;35.97
58373;BME280;44177;43.356;27.672;2023-11-21T06:23:22;97961.06;;;20.21;34.12
58373;BME280;44177;43.356;27.672;2023-11-21T06:25:47;97931.28;;;21.04;32.63
58373;BME280;44177;43.356;27.672;2023-11-21T06:28:13;97962.81;;;21.77;31.71
58373;BME280;44177;43.356;27.672;2023-11-21T06:30:42;97970.59;;;21.66;31.44
58373;BME280;44177;43.356;27.672;2023-11-21T06:33:09;97957.63;;;22.16;30.89
58373;BME280;44177;43.356;27.672;2023-11-21T06:35:35;97955.38;;;21.91;31.03
58373;BME280;44177;43.356;27.672;2023-11-21T06:38:00;97953.16;;;22.02;30.44
58373;BME280;44177;43.356;27.672;2023-11-21T06:40:26;97953.97;;;22.39;30.36
58373;BME280;44177;43.356;27.672;2023-11-21T06:42:51;97948.19;;;22.14;30.93
58373;BME280;44177;43.356;27.672;2023-11-21T06:45:17;97938.50;;;22.88;29.54
58373;BME280;44177;43.356;27.672;2023-11-21T06:47:43;97937.59;;;23.54;28.71
58373;BME280;44177;43.356;27.672;2023-11-21T06:50:08;97939.34;;;23.47;28.57
58373;BME280;44177;43.356;27.672;2023-11-21T06:52:34;97892.66;;;23.81;28.62
58373;BME280;44177;43.356;27.672;2023-11-21T06:54:59;97936.50;;;24.58;27.05
58373;BME280;44177;43.356;27.672;2023-11-21T06:57:25;97928.25;;;24.03;27.85
58373;BME280;44177;43.356;27.672;2023-11-21T06:59:50;97933.81;;;24.28;27.20
58373;BME280;44177;43.356;27.672;2023-11-21T07:02:16;97931.38;;;24.31;27.09
58373;BME280;44177;43.356;27.672;2023-11-21T07:04:45;97928.91;;;23.94;27.82
58373;BME280;44177;43.356;27.672;2023-11-21T07:07:11;97928.00;;;22.96;29.03
58373;BME280;44177;43.356;27.672;2023-11-21T07:09:37;97940.72;;;21.90;30.74
58373;BME280;44177;43.356;27.672;2023-11-21T07:12:03;97936.00;;;21.47;31.38
58373;BME280;44177;43.356;27.672;2023-11-21T07:14:31;97938.16;;;19.55;34.04
58373;BME280;44177;43.356;27.672;2023-11-21T07:16:57;97931.88;;;19.51;34.60
58373;BME280;44177;43.356;27.672;2023-11-21T07:19:23;97927.91;;;18.72;35.04
58373;BME280;44177;43.356;27.672;2023-11-21T07:21:48;97923.91;;;17.46;37.55
58373;BME280;44177;43.356;27.672;2023-11-21T07:24:16;97937.38;;;16.57;39.56
58373;BME280;44177;43.356;27.672;2023-11-21T07:26:41;97948.22;;;15.77;41.83
58373;BME280;44177;43.356;27.672;2023-11-21T07:29:07;97939.91;;;14.93;43.60
58373;BME280;44177;43.356;27.672;2023-11-21T07:31:32;97927.75;;;14.90;43.82
58373;BME280;44177;43.356;27.672;2023-11-21T07:34:01;97923.97;;;14.61;44.48
58373;BME280;44177;43.356;27.672;2023-11-21T07:36:26;97943.03;;;14.43;45.29
58373;BME280;44177;43.356;27.672;2023-11-21T07:38:52;97946.03;;;14.30;46.10
58373;BME280;44177;43.356;27.672;2023-11-21T07:41:18;97945.31;;;13.96;46.24
58373;BME280;44177;43.356;27.672;2023-11-21T07:43:45;97956.88;;;13.82;47.13
58373;BME280;44177;43.356;27.672;2023-11-21T07:46:11;97961.31;;;14.28;46.26
58373;BME280;44177;43.356;27.672;2023-11-21T07:48:38;97945.25;;;15.30;43.57
58373;BME280;44177;43.356;27.672;2023-11-21T07:51:04;97939.28;;;16.06;41.83
58373;BME280;44177;43.356;27.672;2023-11-21T07:53:30;97948.41;;;16.64;40.95
58373;BME280;44177;43.356;27.672;2023-11-21T07:55:56;97921.66;;;16.68;40.66
58373;BME280;44177;43.356;27.672;2023-11-21T07:58:22;97929.22;;;18.56;37.78
58373;BME280;44177;43.356;27.672;2023-11-21T08:00:49;97924.59;;;17.72;38.27
58373;BME280;44177;43.356;27.672;2023-11-21T08:03:15;97953.91;;;17.15;39.83
58373;BME280;44177;43.356;27.672;2023-11-21T08:05:41;97958.25;;;16.69;40.64
58373;BME280;44177;43.356;27.672;2023-11-21T08:08:07;97957.03;;;17.17;39.86
58373;BME280;44177;43.356;27.672;2023-11-21T08:10:33;97950.38;;;16.78;40.34
58373;BME280;44177;43.356;27.672;2023-11-21T08:12:58;97940.06;;;16.06;40.84
58373;BME280;44177;43.356;27.672;2023-11-21T08:15:24;97959.47;;;14.84;44.88
58373;BME280;44177;43.356;27.672;2023-11-21T08:17:49;97963.31;;;14.31;45.96
58373;BME280;44177;43.356;27.672;2023-11-21T08:20:15;97957.09;;;13.66;47.13
58373;BME280;44177;43.356;27.672;2023-11-21T08:22:42;97969.38;;;13.18;49.45
58373;BME280;44177;43.356;27.672;2023-11-21T08:25:08;97974.31;;;12.82;51.22
58373;BME280;44177;43.356;27.672;2023-11-21T08:27:34;97954.19;;;12.47;51.71
58373;BME280;44177;43.356;27.672;2023-11-21T08:30:00;97967.22;;;12.31;51.83
58373;BME280;44177;43.356;27.672;2023-11-21T08:32:26;97972.75;;;12.35;52.31
58373;BME280;44177;43.356;27.672;2023-11-21T08:34:52;97970.72;;;12.31;52.43
58373;BME280;44177;43.356;27.672;2023-11-21T08:37:17;97953.19;;;12.13;53.15
58373;BME280;44177;43.356;27.672;2023-11-21T08:39:47;97972.59;;;12.27;52.45
58373;BME280;44177;43.356;27.672;2023-11-21T08:42:13;97975.75;;;12.29;52.65
58373;BME280;44177;43.356;27.672;2023-11-21T08:44:40;97982.47;;;12.55;52.11
58373;BME280;44177;43.356;27.672;2023-11-21T08:47:06;97965.34;;;12.58;52.30
58373;BME280;44177;43.356;27.672;2023-11-21T08:49:32;97974.38;;;12.86;51.63
58373;BME280;44177;43.356;27.672;2023-11-21T08:51:58;97957.19;;;12.89;51.74
58373;BME280;44177;43.356;27.672;2023-11-21T08:54:25;97935.50;;;13.03;51.32
58373;BME280;44177;43.356;27.672;2023-11-21T08:56:54;97922.91;;;13.25;50.12
58373;BME280;44177;43.356;27.672;2023-11-21T08:59:20;97942.72;;;13.42;49.76
58373;BME280;44177;43.356;27.672;2023-11-21T09:01:46;97947.63;;;13.60;50.38
58373;BME280;44177;43.356;27.672;2023-11-21T09:04:12;97938.56;;;14.24;49.13
58373;BME280;44177;43.356;27.672;2023-11-21T09:06:39;97945.03;;;14.98;46.76
58373;BME280;44177;43.356;27.672;2023-11-21T09:09:05;97933.97;;;15.54;45.48
58373;BME280;44177;43.356;27.672;2023-11-21T09:11:32;97933.81;;;16.31;43.05
58373;BME280;44177;43.356;27.672;2023-11-21T09:13:59;97919.13;;;17.57;40.18
58373;BME280;44177;43.356;27.672;2023-11-21T09:16:26;97930.28;;;18.17;40.49
58373;BME280;44177;43.356;27.672;2023-11-21T09:18:51;97923.19;;;19.14;38.39
58373;BME280;44177;43.356;27.672;2023-11-21T09:21:17;97918.41;;;20.15;36.54
58373;BME280;44177;43.356;27.672;2023-11-21T09:23:46;97914.97;;;22.06;33.14
58373;BME280;44177;43.356;27.672;2023-11-21T09:26:11;97904.00;;;23.74;31.81
58373;BME280;44177;43.356;27.672;2023-11-21T09:28:37;97905.16;;;25.37;28.24
58373;BME280;44177;43.356;27.672;2023-11-21T09:31:04;97898.06;;;26.90;26.97
58373;BME280;44177;43.356;27.672;2023-11-21T09:33:30;97894.66;;;28.03;24.78
58373;BME280;44177;43.356;27.672;2023-11-21T09:35:57;97888.06;;;28.58;24.21
58373;BME280;44177;43.356;27.672;2023-11-21T09:38:23;97886.44;;;29.30;23.64
58373;BME280;44177;43.356;27.672;2023-11-21T09:40:49;97895.94;;;28.45;24.19
58373;BME280;44177;43.356;27.672;2023-11-21T09:43:18;97888.84;;;29.22;22.98
58373;BME280;44177;43.356;27.672;2023-11-21T09:45:52;97869.53;;;29.54;22.66
58373;BME280;44177;43.356;27.672;2023-11-21T09:48:20;97873.88;;;30.15;22.40
58373;BME280;44177;43.356;27.672;2023-11-21T09:50:46;97844.25;;;30.76;21.49
58373;BME280;44177;43.356;27.672;2023-11-21T09:53:18;97862.28;;;30.28;21.26
58373;BME280;44177;43.356;27.672;2023-11-21T09:55:51;97818.22;;;28.60;22.08
58373;BME280;44177;43.356;27.672;2023-11-21T09:58:18;97867.31;;;26.99;24.63
58373;BME280;44177;43.356;27.672;2023-11-21T10:00:48;97863.78;;;24.52;27.55
58373;BME280;44177;43.356;27.672;2023-11-21T10:03:14;97867.63;;;22.47;30.79
58373;BME280;44177;43.356;27.672;2023-11-21T10:05:42;97854.34;;;21.68;31.95
58373;BME280;44177;43.356;27.672;2023-11-21T10:08:09;97870.50;;;20.93;33.52
58373;BME280;44177;43.356;27.672;2023-11-21T10:10:45;97864.94;;;20.45;34.18
58373;BME280;44177;43.356;27.672;2023-11-21T10:13:13;97847.84;;;19.99;35.07
58373;BME280;44177;43.356;27.672;2023-11-21T10:15:42;97860.88;;;19.71;35.50
58373;BME280;44177;43.356;27.672;2023-11-21T10:18:14;97831.94;;;18.34;38.24
58373;BME280;44177;43.356;27.672;2023-11-21T10:20:41;97860.97;;;18.53;38.57
58373;BME280;44177;43.356;27.672;2023-11-21T10:23:07;97867.78;;;18.83;37.81
58373;BME280;44177;43.356;27.672;2023-11-21T10:25:37;97863.78;;;18.46;37.96
58373;BME280;44177;43.356;27.672;2023-11-21T10:28:03;97844.03;;;19.90;36.15
58373;BME280;44177;43.356;27.672;2023-11-21T10:30:37;97839.03;;;20.08;36.36
58373;BME280;44177;43.356;27.672;2023-11-21T10:33:04;97852.44;;;21.25;34.29
58373;BME280;44177;43.356;27.672;2023-11-21T10:35:59;97851.72;;;21.98;34.06
58373;BME280;44177;43.356;27.672;2023-11-21T10:38:26;97844.88;;;22.19;33.30
58373;BME280;44177;43.356;27.672;2023-11-21T10:40:53;97840.66;;;21.77;33.56
58373;BME280;44177;43.356;27.672;2023-11-21T10:43:24;97826.03;;;22.43;32.96
58373;BME280;44177;43.356;27.672;2023-11-21T10:45:50;97838.88;;;22.99;32.21
58373;BME280;44177;43.356;27.672;2023-11-21T10:48:16;97826.25;;;22.82;32.22
58373;BME280;44177;43.356;27.672;2023-11-21T10:50:43;97839.03;;;22.79;32.61
58373;BME280;44177;43.356;27.672;2023-11-21T10:53:09;97824.91;;;22.24;32.87
58373;BME280;44177;43.356;27.672;2023-11-21T10:55:37;97842.03;;;21.69;34.30
58373;BME280;44177;43.356;27.672;2023-11-21T10:58:04;97855.16;;;21.08;34.94
58373;BME280;44177;43.356;27.672;2023-11-21T11:00:33;97836.59;;;20.10;36.26
58373;BME280;44177;43.356;27.672;2023-11-21T11:02:59;97843.41;;;19.47;37.45
58373;BME280;44177;43.356;27.672;2023-11-21T11:05:27;97839.47;;;19.14;39.34
58373;BME280;44177;43.356;27.672;2023-11-21T11:08:04;97842.44;;;18.96;38.67
58373;BME280;44177;43.356;27.672;2023-11-21T11:10:31;97830.06;;;18.69;38.89
58373;BME280;44177;43.356;27.672;2023-11-21T11:12:58;97821.50;;;18.56;40.68
58373;BME280;44177;43.356;27.672;2023-11-21T11:15:25;97824.59;;;18.62;41.03
58373;BME280;44177;43.356;27.672;2023-11-21T11:17:51;97816.97;;;18.73;41.18
58373;BME280;44177;43.356;27.672;2023-11-21T11:20:17;97806.63;;;19.19;40.71
58373;BME280;44177;43.356;27.672;2023-11-21T11:28:47;97773.66;;;20.14;39.09
58373;BME280;44177;43.356;27.672;2023-11-21T11:33:53;97802.03;;;20.90;37.58
58373;BME280;44177;43.356;27.672;2023-11-21T11:36:44;97806.06;;;21.05;35.82
58373;BME280;44177;43.356;27.672;2023-11-21T11:39:35;97805.50;;;20.94;35.82
58373;BME280;44177;43.356;27.672;2023-11-21T11:42:03;97782.78;;;20.59;35.64
58373;BME280;44177;43.356;27.672;2023-11-21T11:50:17;97807.78;;;20.55;37.25
58373;BME280;44177;43.356;27.672;2023-11-21T11:52:52;97780.63;;;20.46;35.90
58373;BME280;44177;43.356;27.672;2023-11-21T11:55:24;97801.34;;;20.38;36.68
58373;BME280;44177;43.356;27.672;2023-11-21T11:57:53;97807.13;;;20.24;36.85
58373;BME280;44177;43.356;27.672;2023-11-21T12:00:33;97785.56;;;20.11;37.04
58373;BME280;44177;43.356;27.672;2023-11-21T12:03:03;97812.91;;;20.33;37.82
58373;BME280;44177;43.356;27.672;2023-11-21T12:05:31;97809.16;;;20.43;36.82
58373;BME280;44177;43.356;27.672;2023-11-21T12:08:09;97807.22;;;20.16;37.18
58373;BME280;44177;43.356;27.672;2023-11-21T12:10:38;97798.66;;;20.34;37.05
58373;BME280;44177;43.356;27.672;2023-11-21T12:13:07;97758.00;;;20.04;36.54
58373;BME280;44177;43.356;27.672;2023-11-21T12:15:34;97789.44;;;19.63;38.03
58373;BME280;44177;43.356;27.672;2023-11-21T12:18:00;97770.63;;;19.54;37.74
58373;BME280;44177;43.356;27.672;2023-11-21T12:20:27;97795.25;;;19.72;37.97
58373;BME280;44177;43.356;27.672;2023-11-21T12:22:59;97782.03;;;19.83;38.21
58373;BME280;44177;43.356;27.672;2023-11-21T12:25:27;97787.00;;;19.96;38.04
58373;BME280;44177;43.356;27.672;2023-11-21T12:28:00;97772.50;;;19.88;37.57
58373;BME280;44177;43.356;27.672;2023-11-21T12:30:27;97775.16;;;19.95;39.13
58373;BME280;44177;43.356;27.672;2023-11-21T12:32:56;97766.81;;;19.99;40.27
58373;BME280;44177;43.356;27.672;2023-11-21T12:35:25;97736.88;;;19.63;40.21
58373;BME280;44177;43.356;27.672;2023-11-21T12:37:52;97780.47;;;19.55;40.16
58373;BME280;44177;43.356;27.672;2023-11-21T12:40:18;97772.44;;;19.37;41.17
58373;BME280;44177;43.356;27.672;2023-11-21T12:42:45;97757.47;;;19.31;41.29
58373;BME280;44177;43.356;27.672;2023-11-21T12:47:48;97736.56;;;18.99;40.01
58373;BME280;44177;43.356;27.672;2023-11-21T12:50:23;97758.16;;;18.76;41.21
58373;BME280;44177;43.356;27.672;2023-11-21T12:52:55;97759.94;;;18.90;41.17
58373;BME280;44177;43.356;27.672;2023-11-21T12:55:24;97758.31;;;18.62;40.76
58373;BME280;44177;43.356;27.672;2023-11-21T12:57:53;97746.59;;;18.51;41.05
58373;BME280;44177;43.356;27.672;2023-11-21T13:03:04;97775.03;;;18.44;40.21
58373;BME280;44177;43.356;27.672;2023-11-21T13:05:33;97776.63;;;17.99;41.26
58373;BME280;44177;43.356;27.672;2023-11-21T13:08:01;97716.41;;;17.27;41.74
58373;BME280;44177;43.356;27.672;2023-11-21T13:10:29;97764.97;;;17.07;42.39
58373;BME280;44177;43.356;27.672;2023-11-21T13:13:00;97727.81;;;16.26;44.48